Time;durP1;ratioP1;P1;durP2;ratioP2;P2;SDS_P1;SDS_P2;PMS_P1;PMS_P2;Temp;Humidity;BMP_temperature;BMP_pressure;BME280_temperature;BME280_humidity;BME280_pressure;Samples;Min_cycle;Max_cycle;Signal;HPM_P1;HPM_P2
2023/02/23 00:00:31;;;;;;;27.40;19.87;;;10.40;99.90;;;;;;5050778;28;20175;-65
2023/02/23 00:03:00;;;;;;;25.53;20.30;;;10.30;99.90;;;;;;5052184;28;20186;-65
2023/02/23 00:05:30;;;;;;;26.70;21.60;;;10.30;99.90;;;;;;5051538;28;20655;-65
2023/02/23 00:07:56;;;;;;;23.50;17.43;;;10.30;99.90;;;;;;5051758;28;20209;-64
2023/02/23 00:10:29;;;;;;;28.10;17.93;;;10.20;99.90;;;;;;5051165;28;20198;-64
2023/02/23 00:12:58;;;;;;;23.70;19.30;;;10.30;99.90;;;;;;5031964;28;20180;-65
2023/02/23 00:15:25;;;;;;;23.27;19.57;;;10.20;99.90;;;;;;5031812;28;20196;-64
2023/02/23 00:17:53;;;;;;;24.20;17.73;;;10.20;99.90;;;;;;5051029;28;20208;-64
2023/02/23 00:20:24;;;;;;;24.67;18.47;;;10.30;99.90;;;;;;5051234;28;20171;-65
2023/02/23 00:22:54;;;;;;;25.77;19.17;;;10.30;99.90;;;;;;5051597;28;20179;-65
2023/02/23 00:25:20;;;;;;;27.17;20.83;;;10.30;99.90;;;;;;5051594;28;20206;-65
2023/02/23 00:27:45;;;;;;;25.73;20.23;;;10.30;99.90;;;;;;5051379;28;20178;-65
2023/02/23 00:30:12;;;;;;;29.90;20.70;;;10.30;99.90;;;;;;5051203;28;20212;-65
2023/02/23 00:32:38;;;;;;;25.90;19.83;;;10.30;99.90;;;;;;5051248;28;20539;-65
2023/02/23 00:35:08;;;;;;;24.83;19.07;;;10.30;99.90;;;;;;5051395;28;20201;-65
2023/02/23 00:37:34;;;;;;;28.07;20.47;;;10.30;99.90;;;;;;5051518;28;20179;-64
2023/02/23 00:39:59;;;;;;;29.60;19.43;;;10.20;99.90;;;;;;5050928;28;20258;-64
2023/02/23 00:42:30;;;;;;;28.27;19.77;;;10.20;99.90;;;;;;5050824;28;20183;-64
2023/02/23 00:44:56;;;;;;;28.47;19.37;;;10.20;99.90;;;;;;5050911;28;20198;-65
2023/02/23 00:47:22;;;;;;;27.73;19.67;;;10.20;99.90;;;;;;5050913;28;20183;-65
2023/02/23 00:49:47;;;;;;;24.47;19.43;;;10.20;99.90;;;;;;5050860;28;20266;-64
2023/02/23 00:52:13;;;;;;;26.23;19.93;;;10.20;99.90;;;;;;5049369;28;20182;-65
2023/02/23 00:54:39;;;;;;;29.63;20.90;;;10.20;99.90;;;;;;5051098;28;20638;-64
2023/02/23 00:57:05;;;;;;;29.43;20.50;;;10.10;99.90;;;;;;5051176;28;20186;-65
2023/02/23 00:59:31;;;;;;;27.77;18.20;;;10.10;99.90;;;;;;5051019;28;20651;-64
2023/02/23 01:01:56;;;;;;;26.40;18.83;;;10.00;99.90;;;;;;5051181;28;20189;-65
2023/02/23 01:04:22;;;;;;;31.57;21.53;;;10.00;99.90;;;;;;5050687;28;20193;-64
2023/02/23 01:06:48;;;;;;;28.03;19.87;;;10.00;99.90;;;;;;5049662;28;20202;-64
2023/02/23 01:09:26;;;;;;;23.30;19.53;;;10.10;99.90;;;;;;5050928;28;20202;-64
2023/02/23 01:11:51;;;;;;;26.97;19.97;;;10.00;99.90;;;;;;5054490;28;20245;-65
2023/02/23 01:14:17;;;;;;;29.83;20.33;;;10.00;99.90;;;;;;5054945;28;20250;-64
2023/02/23 01:16:42;;;;;;;29.60;20.50;;;10.00;99.90;;;;;;5054931;28;20656;-64
2023/02/23 01:19:09;;;;;;;28.83;20.83;;;10.00;99.90;;;;;;5035194;28;20182;-64
2023/02/23 01:21:38;;;;;;;28.30;19.90;;;10.00;99.90;;;;;;5034944;28;20262;-65
2023/02/23 01:24:05;;;;;;;22.67;18.70;;;10.00;99.90;;;;;;5054496;28;20190;-65
2023/02/23 01:26:34;;;;;;;25.80;19.40;;;10.10;99.90;;;;;;5054445;28;20286;-65
2023/02/23 01:29:02;;;;;;;27.10;20.10;;;10.10;99.90;;;;;;5055129;28;20638;-67
2023/02/23 01:31:28;;;;;;;28.80;20.03;;;10.10;99.90;;;;;;5055682;28;20186;-65
2023/02/23 01:33:56;;;;;;;27.17;19.57;;;10.10;99.90;;;;;;5055917;28;20187;-64
2023/02/23 01:36:21;;;;;;;29.03;20.40;;;10.20;99.90;;;;;;5055750;28;20194;-65
2023/02/23 01:38:48;;;;;;;32.60;21.70;;;10.10;99.90;;;;;;5055843;28;20183;-64
2023/02/23 01:41:14;;;;;;;27.00;19.97;;;10.10;99.90;;;;;;5055845;28;20183;-64
2023/02/23 01:44:04;;;;;;;32.10;20.83;;;10.10;99.90;;;;;;5055443;28;20328;-65
2023/02/23 01:46:38;;;;;;;29.63;21.67;;;10.10;99.90;;;;;;5055412;28;20199;-64
2023/02/23 01:49:08;;;;;;;28.60;22.17;;;10.10;99.90;;;;;;5055373;28;20632;-65
2023/02/23 01:51:40;;;;;;;29.07;22.47;;;10.20;99.90;;;;;;5054436;28;20229;-64
2023/02/23 01:54:13;;;;;;;28.87;19.87;;;10.20;99.90;;;;;;5054534;28;20676;-64
2023/02/23 01:56:44;;;;;;;28.00;21.27;;;10.20;99.90;;;;;;5054319;28;20237;-64
2023/02/23 01:59:11;;;;;;;24.13;19.80;;;10.20;99.90;;;;;;5054219;28;20183;-64
2023/02/23 02:01:40;;;;;;;32.50;21.97;;;10.20;99.90;;;;;;5053962;28;20262;-63
2023/02/23 02:04:07;;;;;;;28.33;21.50;;;10.20;99.90;;;;;;5054213;28;20225;-64
2023/02/23 02:06:35;;;;;;;30.30;21.13;;;10.20;99.90;;;;;;5052007;28;20210;-64
2023/02/23 02:09:09;;;;;;;31.87;21.47;;;10.20;99.90;;;;;;5053982;28;20202;-64
2023/02/23 02:11:35;;;;;;;30.10;20.10;;;10.20;99.90;;;;;;5053994;28;20186;-63
2023/02/23 02:14:19;;;;;;;29.93;20.47;;;10.20;99.90;;;;;;5053951;28;20171;-64
2023/02/23 02:17:22;;;;;;;26.97;20.33;;;10.20;99.90;;;;;;5053613;28;20284;-64
2023/02/23 02:20:31;;;;;;;25.67;20.30;;;10.10;99.90;;;;;;5053322;28;20191;-64
2023/02/23 02:22:59;;;;;;;23.70;18.57;;;10.10;99.90;;;;;;5053022;28;20516;-64
2023/02/23 02:25:44;;;;;;;28.83;21.43;;;10.10;99.90;;;;;;5053354;28;20209;-64
2023/02/23 02:28:12;;;;;;;29.33;21.13;;;10.10;99.90;;;;;;5053842;28;20193;-64
2023/02/23 02:30:56;;;;;;;28.90;22.17;;;10.10;99.90;;;;;;5052875;28;20217;-64
2023/02/23 02:33:47;;;;;;;30.40;21.30;;;10.00;99.90;;;;;;5053599;28;20175;-64
2023/02/23 02:36:50;;;;;;;29.87;21.63;;;10.00;99.90;;;;;;5053384;28;20337;-64
2023/02/23 02:39:36;;;;;;;26.70;21.43;;;10.10;99.90;;;;;;5053348;28;20178;-63
2023/02/23 02:42:25;;;;;;;27.33;20.60;;;10.10;99.90;;;;;;5053272;28;20274;-64
2023/02/23 02:45:10;;;;;;;31.70;20.97;;;10.00;99.90;;;;;;5053145;28;20198;-64
2023/02/23 02:47:53;;;;;;;31.03;24.27;;;10.00;99.90;;;;;;5053648;28;20167;-64
2023/02/23 02:50:49;;;;;;;28.93;22.57;;;10.00;99.90;;;;;;5052528;28;20210;-64
2023/02/23 02:53:24;;;;;;;33.77;23.10;;;10.00;99.90;;;;;;5040257;28;20182;-64
2023/02/23 02:55:51;;;;;;;33.20;22.13;;;10.00;99.90;;;;;;5052810;28;20293;-65
2023/02/23 02:58:18;;;;;;;33.83;22.20;;;10.00;99.90;;;;;;5053162;28;20171;-65
2023/02/23 04:19:51;;;;;;;39.03;25.17;;;9.30;99.90;;;;;;5051359;28;20516;-65
2023/02/23 04:22:16;;;;;;;40.03;24.87;;;9.30;99.90;;;;;;5051705;28;20221;-64
2023/02/23 04:24:42;;;;;;;41.67;24.20;;;9.20;99.90;;;;;;5051272;28;20175;-65
2023/02/23 04:27:07;;;;;;;38.60;24.63;;;9.20;99.90;;;;;;5051336;28;20213;-63
2023/02/23 04:29:33;;;;;;;38.17;25.60;;;9.20;99.90;;;;;;5051020;28;20209;-63
2023/02/23 04:31:58;;;;;;;38.40;26.17;;;9.10;99.90;;;;;;5051586;28;20650;-63
2023/02/23 04:34:24;;;;;;;38.93;25.90;;;9.10;99.90;;;;;;5051206;28;20170;-63
2023/02/23 04:36:50;;;;;;;37.90;24.57;;;9.10;99.90;;;;;;5051566;28;20195;-63
2023/02/23 04:39:16;;;;;;;43.13;24.27;;;9.10;99.90;;;;;;5050939;28;20185;-63
2023/02/23 04:41:41;;;;;;;43.77;23.90;;;9.10;99.90;;;;;;5051421;28;20171;-63
2023/02/23 04:44:07;;;;;;;41.63;25.77;;;9.10;99.90;;;;;;5050480;28;20187;-63
2023/02/23 04:46:32;;;;;;;40.77;25.87;;;9.10;99.90;;;;;;5057059;28;20676;-64
2023/02/23 04:48:58;;;;;;;47.47;26.43;;;9.20;99.90;;;;;;5057420;28;20241;-63
2023/02/23 04:51:29;;;;;;;42.07;25.93;;;9.20;99.90;;;;;;5057731;28;20174;-64
2023/02/23 04:53:55;;;;;;;48.07;27.43;;;9.20;99.90;;;;;;5057740;28;20649;-63
2023/02/23 04:56:21;;;;;;;44.83;25.57;;;9.20;99.90;;;;;;5057989;28;20213;-63
2023/02/23 04:58:46;;;;;;;41.67;25.57;;;9.30;99.90;;;;;;5057793;28;20186;-63
2023/02/23 05:01:12;;;;;;;48.20;26.30;;;9.30;99.90;;;;;;5057702;28;20186;-63
2023/02/23 05:03:37;;;;;;;42.97;27.33;;;9.30;99.90;;;;;;5057510;28;20182;-64
2023/02/23 05:06:03;;;;;;;42.20;26.13;;;9.30;99.90;;;;;;5057854;28;20559;-63
2023/02/23 05:08:29;;;;;;;40.60;24.83;;;9.30;99.90;;;;;;5057392;28;20770;-64
2023/02/23 05:10:54;;;;;;;42.13;25.27;;;9.30;99.90;;;;;;5057471;28;20202;-64
2023/02/23 05:13:20;;;;;;;41.57;25.37;;;9.30;99.90;;;;;;5057548;28;20245;-63
2023/02/23 05:15:46;;;;;;;43.03;24.63;;;9.30;99.90;;;;;;5043879;28;20794;-63
2023/02/23 05:18:11;;;;;;;43.53;24.77;;;9.30;99.90;;;;;;5057864;28;20177;-64
2023/02/23 05:20:37;;;;;;;44.57;26.20;;;9.30;99.90;;;;;;5057042;28;20179;-64
2023/02/23 05:23:03;;;;;;;41.03;25.60;;;9.30;99.90;;;;;;5057832;28;20538;-64
2023/02/23 05:25:28;;;;;;;43.77;25.90;;;9.30;99.90;;;;;;5057414;28;20198;-64
2023/02/23 05:27:54;;;;;;;39.57;25.87;;;9.30;99.90;;;;;;5057807;28;20679;-64
2023/02/23 05:30:20;;;;;;;38.37;25.03;;;9.30;99.90;;;;;;5057284;28;20336;-64
2023/02/23 05:32:45;;;;;;;36.23;25.13;;;9.30;99.90;;;;;;5057440;28;20221;-64
2023/02/23 05:35:11;;;;;;;40.87;23.40;;;9.20;99.90;;;;;;5057403;28;20191;-63
2023/02/23 05:37:37;;;;;;;47.67;25.13;;;9.20;99.90;;;;;;5057621;28;20167;-63
2023/02/23 05:40:03;;;;;;;43.40;24.83;;;9.20;99.90;;;;;;5057157;28;20194;-63
2023/02/23 05:42:29;;;;;;;38.60;25.37;;;9.20;99.90;;;;;;5057207;28;20182;-63
2023/02/23 05:44:54;;;;;;;34.73;23.43;;;9.20;99.90;;;;;;5056306;28;20198;-63
2023/02/23 05:47:20;;;;;;;40.30;23.87;;;9.20;99.90;;;;;;5057190;28;20194;-63
2023/02/23 05:49:45;;;;;;;43.07;23.87;;;9.20;99.90;;;;;;5057139;28;20234;-63
2023/02/23 05:52:11;;;;;;;36.60;23.40;;;9.20;99.90;;;;;;5055960;28;20174;-63
2023/02/23 05:54:37;;;;;;;38.70;24.97;;;9.20;99.90;;;;;;5056592;28;20185;-63
2023/02/23 05:57:02;;;;;;;37.90;24.87;;;9.20;99.90;;;;;;5054521;28;20174;-63
2023/02/23 05:59:28;;;;;;;38.53;23.23;;;9.20;99.90;;;;;;5053942;28;20258;-63
2023/02/23 06:01:53;;;;;;;39.70;23.30;;;9.20;99.90;;;;;;5054240;28;20167;-63
2023/02/23 06:04:21;;;;;;;37.93;23.27;;;9.20;99.90;;;;;;5053981;28;20626;-63
2023/02/23 06:06:46;;;;;;;39.17;22.70;;;9.20;99.90;;;;;;5054029;28;20183;-63
2023/02/23 06:09:12;;;;;;;32.17;21.23;;;9.20;99.90;;;;;;5053623;28;20211;-63
2023/02/23 06:11:37;;;;;;;37.47;23.00;;;9.20;99.90;;;;;;5054018;28;20171;-63
2023/02/23 06:14:03;;;;;;;35.23;22.07;;;9.20;99.90;;;;;;5053829;28;20644;-63
2023/02/23 06:16:29;;;;;;;33.30;23.50;;;9.10;99.90;;;;;;5053874;28;20609;-63
2023/02/23 06:18:54;;;;;;;36.07;24.57;;;9.10;99.90;;;;;;5053741;28;20170;-63
2023/02/23 06:21:20;;;;;;;33.57;22.57;;;9.10;99.90;;;;;;5053485;28;20202;-64
2023/02/23 06:23:45;;;;;;;47.23;23.37;;;9.10;99.90;;;;;;5053554;28;20678;-64
2023/02/23 06:26:11;;;;;;;36.00;24.33;;;9.10;99.90;;;;;;5053805;28;20277;-64
2023/02/23 06:28:37;;;;;;;42.13;24.30;;;9.10;99.90;;;;;;5053170;28;20183;-63
2023/02/23 06:31:02;;;;;;;44.53;25.77;;;9.10;99.90;;;;;;5053425;28;20174;-63
2023/02/23 06:33:28;;;;;;;35.73;23.10;;;9.10;99.90;;;;;;5053336;28;20221;-63
2023/02/23 06:35:54;;;;;;;40.63;24.80;;;9.10;99.90;;;;;;5053790;28;20273;-64
2023/02/23 06:38:19;;;;;;;40.50;26.17;;;9.10;99.90;;;;;;5053651;28;20167;-64
2023/02/23 06:40:45;;;;;;;40.20;21.87;;;9.10;99.90;;;;;;5053101;28;20254;-64
2023/02/23 06:43:11;;;;;;;39.97;23.13;;;9.10;99.90;;;;;;5053340;28;20179;-63
2023/02/23 06:45:37;;;;;;;43.60;25.33;;;9.00;99.90;;;;;;5054523;28;20577;-63
2023/02/23 06:48:03;;;;;;;34.53;23.73;;;9.00;99.90;;;;;;5055542;28;20175;-64
2023/02/23 06:50:28;;;;;;;44.60;26.57;;;9.00;99.90;;;;;;5052820;28;20206;-63
2023/02/23 06:52:56;;;;;;;36.83;24.73;;;9.00;99.90;;;;;;5053133;28;20205;-63
2023/02/23 06:55:22;;;;;;;44.17;25.50;;;9.10;99.90;;;;;;5053028;28;20202;-64
2023/02/23 06:57:50;;;;;;;41.67;23.53;;;9.00;99.90;;;;;;5053149;28;20181;-64
2023/02/23 07:00:16;;;;;;;46.80;26.53;;;9.00;99.90;;;;;;5050949;28;20183;-64
2023/02/23 07:02:43;;;;;;;44.40;25.00;;;9.00;99.90;;;;;;5052548;28;20191;-64
2023/02/23 07:05:09;;;;;;;34.50;22.23;;;9.00;99.90;;;;;;5052874;28;20190;-64
2023/02/23 07:07:35;;;;;;;35.30;23.57;;;9.00;99.90;;;;;;5052078;28;20194;-64
2023/02/23 07:10:01;;;;;;;48.13;25.70;;;9.00;99.90;;;;;;5052597;28;20500;-64
2023/02/23 07:12:26;;;;;;;35.33;24.47;;;9.00;99.90;;;;;;5052458;28;20182;-64
2023/02/23 07:14:52;;;;;;;40.27;23.73;;;9.00;99.90;;;;;;5052798;28;20191;-64
2023/02/23 07:17:18;;;;;;;41.27;25.63;;;9.00;99.90;;;;;;5052488;28;20174;-64
2023/02/23 07:19:43;;;;;;;38.67;24.00;;;9.00;99.90;;;;;;5052380;28;20206;-63
2023/02/23 07:22:09;;;;;;;42.90;23.53;;;9.00;99.90;;;;;;5052374;28;20710;-64
2023/02/23 07:24:35;;;;;;;36.20;24.70;;;9.10;99.90;;;;;;5052319;28;20269;-64
2023/02/23 07:27:00;;;;;;;44.23;27.57;;;9.10;99.90;;;;;;5052418;28;20548;-63
2023/02/23 07:29:27;;;;;;;43.83;27.43;;;9.10;99.90;;;;;;5051993;28;20217;-66
2023/02/23 07:31:53;;;;;;;38.53;22.50;;;9.10;99.90;;;;;;5052386;28;20225;-63
2023/02/23 07:34:18;;;;;;;39.50;25.73;;;9.10;99.90;;;;;;5052304;28;20166;-63
2023/02/23 07:36:44;;;;;;;38.47;24.83;;;9.10;99.90;;;;;;5051826;28;20656;-63
2023/02/23 07:39:09;;;;;;;41.13;24.30;;;9.10;99.90;;;;;;5052093;28;20186;-63
2023/02/23 07:41:35;;;;;;;41.47;23.93;;;9.10;99.90;;;;;;5051865;28;20182;-64
2023/02/23 07:44:01;;;;;;;42.40;25.07;;;9.10;99.90;;;;;;5052226;28;20614;-64
2023/02/23 07:46:26;;;;;;;39.63;24.17;;;9.10;99.90;;;;;;5051696;28;20537;-64
2023/02/23 07:48:52;;;;;;;41.57;23.53;;;9.10;99.90;;;;;;5051951;28;20267;-63
2023/02/23 07:51:18;;;;;;;36.97;23.47;;;9.10;99.90;;;;;;5051509;28;20529;-63
2023/02/23 07:53:44;;;;;;;41.00;22.53;;;9.20;99.90;;;;;;5052037;28;20175;-64
2023/02/23 07:56:11;;;;;;;38.77;25.07;;;9.20;99.90;;;;;;5052538;28;20213;-64
2023/02/23 07:58:38;;;;;;;47.20;23.63;;;9.20;99.90;;;;;;5051617;28;20182;-64
2023/02/23 08:01:04;;;;;;;41.47;23.90;;;9.20;99.90;;;;;;5051288;28;20198;-64
2023/02/23 08:03:29;;;;;;;41.27;24.87;;;9.20;99.90;;;;;;5051610;28;20187;-63
2023/02/23 08:05:55;;;;;;;42.33;25.60;;;9.30;99.90;;;;;;5051680;28;20190;-63
2023/02/23 08:08:21;;;;;;;38.87;25.30;;;9.30;99.90;;;;;;5051729;28;20178;-64
2023/02/23 08:10:49;;;;;;;42.07;25.60;;;9.30;99.90;;;;;;5051261;28;20218;-64
2023/02/23 08:13:15;;;;;;;33.90;22.47;;;9.30;99.90;;;;;;5051697;28;20175;-64
2023/02/23 08:15:42;;;;;;;35.53;22.40;;;9.30;99.90;;;;;;5051416;28;20198;-65
2023/02/23 08:18:08;;;;;;;33.37;21.37;;;9.30;99.90;;;;;;5051761;28;20610;-64
2023/02/23 08:20:33;;;;;;;43.33;23.80;;;9.20;99.90;;;;;;5050386;28;20229;-64
2023/02/23 08:22:59;;;;;;;30.17;20.17;;;9.20;99.90;;;;;;5051217;28;20178;-64
2023/02/23 08:25:28;;;;;;;35.57;21.80;;;9.30;99.90;;;;;;5051363;28;20238;-64
2023/02/23 08:27:54;;;;;;;37.53;21.60;;;9.30;99.90;;;;;;5051477;28;20189;-64
2023/02/23 08:30:21;;;;;;;39.50;24.87;;;9.30;99.90;;;;;;5053075;28;20297;-64
2023/02/23 08:32:47;;;;;;;35.83;22.10;;;9.30;99.90;;;;;;5051193;28;20647;-64
2023/02/23 08:35:13;;;;;;;36.77;22.20;;;9.30;99.90;;;;;;5051180;28;20570;-63
2023/02/23 08:37:40;;;;;;;35.27;23.33;;;9.30;99.90;;;;;;5050826;28;20171;-64
2023/02/23 08:40:07;;;;;;;29.87;22.30;;;9.40;99.90;;;;;;5049570;28;20186;-65
2023/02/23 08:42:33;;;;;;;27.60;20.00;;;9.40;99.90;;;;;;5051016;28;20187;-64
2023/02/23 08:45:00;;;;;;;29.80;19.80;;;9.40;99.90;;;;;;5051107;28;20344;-64
2023/02/23 08:47:26;;;;;;;31.67;20.90;;;9.40;99.90;;;;;;5051129;28;20405;-64
2023/02/23 08:49:53;;;;;;;30.97;19.37;;;9.30;99.90;;;;;;5050961;28;20595;-65
2023/02/23 08:52:19;;;;;;;33.47;20.53;;;9.30;99.90;;;;;;5049653;28;20175;-64
2023/02/23 08:54:45;;;;;;;26.80;21.57;;;9.20;99.90;;;;;;5052458;28;20171;-64
2023/02/23 08:57:11;;;;;;;31.57;21.73;;;9.30;99.90;;;;;;5051307;28;20518;-64
2023/02/23 08:59:38;;;;;;;30.93;21.33;;;9.30;99.90;;;;;;5050838;28;20228;-65
2023/02/23 09:02:04;;;;;;;37.70;21.13;;;9.30;99.90;;;;;;5051019;28;20186;-65
2023/02/23 09:04:34;;;;;;;21.50;18.27;;;9.30;99.90;;;;;;5051124;28;20536;-64
2023/02/23 09:07:00;;;;;;;25.47;18.77;;;9.30;99.90;;;;;;5050929;28;20656;-64
2023/02/23 09:09:26;;;;;;;29.10;20.57;;;9.30;99.90;;;;;;5050454;28;20203;-65
2023/02/23 09:11:52;;;;;;;23.40;18.27;;;9.30;99.90;;;;;;5049201;28;20201;-64
2023/02/23 09:14:18;;;;;;;26.40;19.03;;;9.30;99.90;;;;;;5051336;28;20171;-65
2023/02/23 09:16:43;;;;;;;29.40;19.27;;;9.30;99.90;;;;;;5050548;28;20575;-65
2023/02/23 09:19:09;;;;;;;26.57;19.10;;;9.30;99.90;;;;;;5050580;28;20180;-65
2023/02/23 09:21:35;;;;;;;33.40;21.53;;;9.30;99.90;;;;;;5050482;28;20644;-65
2023/02/23 09:24:01;;;;;;;27.53;19.40;;;9.30;99.90;;;;;;5050947;28;20600;-65
2023/02/23 09:26:28;;;;;;;28.63;19.90;;;9.40;99.90;;;;;;5050451;28;20195;-65
2023/02/23 09:28:54;;;;;;;28.87;19.40;;;9.40;99.90;;;;;;5050660;28;20635;-65
2023/02/23 09:31:22;;;;;;;25.17;17.87;;;9.40;99.90;;;;;;5051422;28;20205;-65
2023/02/23 09:33:48;;;;;;;33.77;20.73;;;9.40;99.90;;;;;;5054668;28;20174;-65
2023/02/23 09:36:18;;;;;;;30.17;18.90;;;9.50;99.90;;;;;;5054592;28;20203;-64
2023/02/23 09:38:45;;;;;;;30.37;20.80;;;9.50;99.90;;;;;;5054407;28;20182;-64
2023/02/23 09:41:42;;;;;;;36.17;19.27;;;9.40;99.90;;;;;;5054079;28;20532;-64
2023/02/23 09:44:32;;;;;;;34.20;20.90;;;9.30;99.90;;;;;;5041172;28;20187;-65
2023/02/23 09:47:26;;;;;;;41.13;22.23;;;9.20;99.90;;;;;;5033526;28;20183;-65
2023/02/23 09:49:54;;;;;;;41.17;22.17;;;9.10;99.90;;;;;;5041430;28;20225;-65
2023/02/23 09:52:24;;;;;;;35.17;20.63;;;9.10;99.90;;;;;;5054208;28;20289;-64
2023/02/23 09:54:50;;;;;;;41.57;24.13;;;9.20;99.90;;;;;;5053868;28;20670;-64
2023/02/23 09:57:21;;;;;;;40.10;21.63;;;9.10;99.90;;;;;;5052623;28;20606;-65
2023/02/23 09:59:47;;;;;;;33.17;20.33;;;9.20;99.90;;;;;;5036689;28;20201;-65
2023/02/23 10:02:46;;;;;;;36.77;21.60;;;9.20;99.90;;;;;;5054250;28;20547;-65
2023/02/23 10:05:14;;;;;;;48.03;22.73;;;9.20;99.90;;;;;;5053795;28;20206;-65
2023/02/23 10:07:58;;;;;;;39.33;19.57;;;9.20;99.90;;;;;;5052389;28;20643;-64
2023/02/23 10:10:38;;;;;;;42.13;22.40;;;9.20;99.90;;;;;;5053088;28;20667;-64
2023/02/23 10:13:25;;;;;;;54.33;27.03;;;9.10;99.90;;;;;;5054000;28;20171;-63
2023/02/23 10:16:11;;;;;;;46.87;23.87;;;9.10;99.90;;;;;;5053673;28;20202;-64
2023/02/23 10:18:45;;;;;;;42.67;24.17;;;9.10;99.90;;;;;;5053370;28;20183;-64
2023/02/23 10:21:40;;;;;;;48.03;25.50;;;9.20;99.90;;;;;;5053311;28;20171;-64
2023/02/23 10:24:18;;;;;;;48.40;25.20;;;9.20;99.90;;;;;;5048610;28;20571;-64
2023/02/23 10:26:53;;;;;;;44.53;22.60;;;9.20;99.90;;;;;;5053330;28;20200;-65
2023/02/23 10:29:35;;;;;;;42.00;23.43;;;9.20;99.90;;;;;;5053437;28;20201;-65
2023/02/23 10:32:12;;;;;;;48.87;26.07;;;9.20;99.90;;;;;;5053405;28;20547;-64
2023/02/23 10:34:39;;;;;;;57.90;26.50;;;9.30;99.90;;;;;;5053520;28;20316;-64
2023/02/23 10:37:10;;;;;;;54.27;30.17;;;9.30;99.90;;;;;;5052093;28;20678;-64
2023/02/23 10:39:36;;;;;;;53.13;27.33;;;9.30;99.90;;;;;;5052910;28;20190;-64
2023/02/23 10:42:05;;;;;;;38.90;20.97;;;9.30;99.90;;;;;;5053341;28;20189;-64
2023/02/23 10:44:31;;;;;;;42.03;21.33;;;9.20;99.90;;;;;;5052532;28;20640;-64
2023/02/23 10:47:12;;;;;;;47.77;22.83;;;9.30;99.90;;;;;;5052617;28;20194;-64
2023/02/23 10:49:45;;;;;;;38.37;21.57;;;9.20;99.90;;;;;;5052874;28;20710;-64
2023/02/23 10:52:15;;;;;;;48.77;19.93;;;9.20;99.90;;;;;;5032071;28;20194;-64
2023/02/23 10:54:50;;;;;;;47.00;22.40;;;9.20;99.90;;;;;;5032886;28;20168;-64
2023/02/23 10:57:37;;;;;;;42.73;22.57;;;9.10;99.90;;;;;;5033239;28;20175;-63
2023/02/23 11:00:15;;;;;;;35.90;22.87;;;9.10;99.90;;;;;;5035087;28;20325;-64
2023/02/23 11:02:42;;;;;;;38.80;22.13;;;9.10;99.90;;;;;;5052877;28;20692;-63
2023/02/23 11:05:49;;;;;;;58.37;21.77;;;9.10;99.90;;;;;;5053152;28;20205;-64
2023/02/23 11:08:21;;;;;;;39.80;22.43;;;9.10;99.90;;;;;;5052609;28;20174;-64
2023/02/23 11:11:17;;;;;;;49.00;20.20;;;9.10;99.90;;;;;;5052214;28;20229;-63
2023/02/23 11:13:49;;;;;;;38.93;20.47;;;9.10;99.90;;;;;;5042408;28;20648;-63
2023/02/23 11:16:20;;;;;;;46.97;22.93;;;9.10;99.90;;;;;;5052689;28;20576;-64
2023/02/23 11:18:55;;;;;;;54.17;23.50;;;9.10;99.90;;;;;;5052544;28;20296;-64
2023/02/23 11:21:28;;;;;;;54.87;22.77;;;9.10;99.90;;;;;;5051930;28;20189;-64
2023/02/23 11:23:56;;;;;;;45.57;21.73;;;9.10;99.90;;;;;;5052561;28;20185;-64
2023/02/23 11:26:41;;;;;;;47.73;21.43;;;9.10;99.90;;;;;;5052180;28;20206;-63
2023/02/23 11:29:39;;;;;;;50.60;22.03;;;9.10;99.90;;;;;;5052231;28;20197;-64
2023/02/23 11:32:14;;;;;;;37.90;21.03;;;9.10;99.90;;;;;;5051747;28;20186;-64
2023/02/23 11:34:42;;;;;;;40.10;20.03;;;9.10;99.90;;;;;;5051758;28;20178;-64
2023/02/23 11:37:19;;;;;;;47.90;22.33;;;9.10;99.90;;;;;;5052420;28;20220;-63
2023/02/23 11:39:57;;;;;;;49.43;22.57;;;9.10;99.90;;;;;;5051906;28;20538;-63
2023/02/23 11:42:32;;;;;;;48.17;21.20;;;9.10;99.90;;;;;;5052211;28;20189;-64
2023/02/23 11:45:09;;;;;;;36.93;19.10;;;9.10;99.90;;;;;;5052161;28;20233;-64
2023/02/23 11:47:40;;;;;;;40.37;21.33;;;9.20;99.90;;;;;;5049984;28;20667;-64
2023/02/23 11:50:09;;;;;;;42.57;21.70;;;9.20;99.90;;;;;;5051798;28;20214;-65
2023/02/23 11:52:35;;;;;;;47.33;20.60;;;9.20;99.90;;;;;;5051906;28;20171;-65
2023/02/23 11:55:05;;;;;;;45.20;22.33;;;9.20;99.90;;;;;;5050581;28;20218;-65
2023/02/23 11:57:34;;;;;;;32.50;17.77;;;9.30;99.90;;;;;;5051634;28;20667;-64
2023/02/23 12:00:12;;;;;;;44.07;20.77;;;9.30;99.90;;;;;;5051616;28;20182;-64
2023/02/23 12:02:55;;;;;;;39.27;19.30;;;9.20;99.90;;;;;;5051300;28;20193;-64
2023/02/23 12:05:22;;;;;;;44.87;21.10;;;9.20;99.90;;;;;;5050232;28;20683;-64
2023/02/23 12:08:01;;;;;;;38.13;20.00;;;9.20;99.90;;;;;;5051677;28;20190;-65
2023/02/23 12:10:42;;;;;;;37.47;19.43;;;9.30;99.90;;;;;;5051498;28;20206;-64
2023/02/23 12:13:23;;;;;;;36.97;19.50;;;9.30;99.90;;;;;;5051648;28;20224;-64
2023/02/23 12:15:53;;;;;;;44.50;18.57;;;9.30;99.90;;;;;;5049779;28;20667;-64
2023/02/23 12:18:59;;;;;;;41.87;19.37;;;9.30;99.90;;;;;;5049494;28;20187;-65
2023/02/23 12:21:41;;;;;;;36.70;18.97;;;9.30;99.90;;;;;;5034800;28;20256;-65
2023/02/23 12:24:26;;;;;;;31.90;17.53;;;9.20;99.90;;;;;;5051795;28;20175;-64
2023/02/23 12:26:59;;;;;;;35.63;20.27;;;9.20;99.90;;;;;;5051200;28;20740;-64
2023/02/23 12:29:49;;;;;;;31.27;16.77;;;9.20;99.90;;;;;;5051153;28;20248;-65
2023/02/23 12:32:22;;;;;;;37.53;17.80;;;9.10;99.90;;;;;;5051438;28;20222;-64
2023/02/23 12:34:57;;;;;;;40.47;20.00;;;9.00;99.90;;;;;;5051286;28;20231;-65
2023/02/23 12:37:27;;;;;;;47.13;19.27;;;9.00;99.90;;;;;;5049884;28;20189;-64
2023/02/23 12:40:04;;;;;;;39.97;19.23;;;9.00;99.90;;;;;;5051244;28;20712;-64
2023/02/23 12:42:43;;;;;;;32.23;20.03;;;8.90;99.90;;;;;;5051121;28;20182;-64
2023/02/23 12:45:31;;;;;;;34.57;16.70;;;9.00;99.90;;;;;;5051054;28;20675;-63
2023/02/23 12:48:11;;;;;;;29.43;17.87;;;9.00;99.90;;;;;;5051050;28;20190;-64
2023/02/23 12:50:43;;;;;;;42.97;18.73;;;9.00;99.90;;;;;;5050775;28;20823;-64
2023/02/23 12:53:35;;;;;;;39.80;18.60;;;9.00;99.90;;;;;;5051171;28;20206;-64
2023/02/23 12:56:34;;;;;;;39.60;18.60;;;9.00;99.90;;;;;;5050105;28;20528;-64
2023/02/23 12:59:24;;;;;;;42.87;19.40;;;8.90;99.90;;;;;;5050727;28;20179;-64
2023/02/23 13:01:53;;;;;;;28.20;17.27;;;8.80;99.90;;;;;;5051314;28;20632;-64
2023/02/23 13:04:37;;;;;;;38.70;19.03;;;8.80;99.90;;;;;;5031267;28;20171;-64
2023/02/23 13:07:47;;;;;;;34.53;17.20;;;8.90;99.90;;;;;;5034659;28;20179;-64
2023/02/23 13:10:22;;;;;;;40.00;17.63;;;9.00;99.90;;;;;;5054985;28;20276;-64
2023/02/23 13:13:10;;;;;;;40.20;18.07;;;9.00;99.90;;;;;;5055620;28;20698;-63
2023/02/23 13:15:39;;;;;;;35.03;17.13;;;9.00;99.90;;;;;;5054622;28;20572;-64
2023/02/23 13:18:37;;;;;;;25.73;16.20;;;9.10;99.90;;;;;;5054505;28;20273;-64
2023/02/23 13:21:33;;;;;;;31.23;15.43;;;9.20;99.90;;;;;;5054539;28;20174;-63
2023/02/23 13:24:09;;;;;;;32.93;17.07;;;9.30;99.90;;;;;;5054168;28;20187;-63
2023/02/23 13:26:40;;;;;;;36.03;15.40;;;9.50;99.90;;;;;;5054450;28;20262;-63
2023/02/23 13:29:30;;;;;;;31.70;15.47;;;9.60;99.90;;;;;;5052846;28;20194;-63
2023/02/23 13:31:58;;;;;;;31.20;15.43;;;9.80;99.90;;;;;;5052903;28;20179;-63
2023/02/23 13:34:34;;;;;;;31.33;16.37;;;9.80;99.90;;;;;;5054590;28;20194;-63
2023/02/23 13:37:04;;;;;;;23.47;14.30;;;9.80;99.90;;;;;;5054328;28;20547;-63
2023/02/23 13:39:44;;;;;;;23.70;14.13;;;9.80;99.90;;;;;;5054182;28;20273;-63
2023/02/23 13:42:35;;;;;;;22.87;13.13;;;9.70;99.90;;;;;;5053749;28;20194;-63
2023/02/23 13:45:24;;;;;;;31.67;14.67;;;9.70;99.90;;;;;;5054003;28;20278;-62
2023/02/23 13:48:12;;;;;;;26.63;13.73;;;9.70;99.90;;;;;;5053764;28;20468;-63
2023/02/23 13:50:56;;;;;;;31.10;14.33;;;9.80;99.90;;;;;;5052860;28;20563;-63
2023/02/23 13:54:02;;;;;;;30.70;14.23;;;9.90;99.90;;;;;;5053995;28;20175;-63
2023/02/23 13:56:31;;;;;;;22.93;13.07;;;10.00;99.90;;;;;;5024734;28;20226;-63
2023/02/23 13:59:00;;;;;;;27.53;15.33;;;10.30;99.90;;;;;;5053746;28;20195;-63
2023/02/23 14:01:34;;;;;;;32.07;13.90;;;10.50;99.90;;;;;;5053939;28;20696;-63
2023/02/23 14:04:06;;;;;;;23.83;13.27;;;10.60;99.90;;;;;;5053956;28;20182;-63
2023/02/23 14:06:33;;;;;;;23.80;13.50;;;10.60;99.90;;;;;;5052000;28;20234;-64
2023/02/23 14:09:20;;;;;;;23.47;13.17;;;10.80;99.90;;;;;;5045869;28;20266;-64
2023/02/23 14:11:48;;;;;;;27.37;13.50;;;11.10;99.90;;;;;;5052034;28;20183;-64
2023/02/23 14:14:33;;;;;;;24.50;12.63;;;11.20;99.90;;;;;;5054076;28;20171;-64